Time;durP1;ratioP1;P1;durP2;ratioP2;P2;SDS_P1;SDS_P2;PMS_P1;PMS_P2;Temp;Humidity;BMP_temperature;BMP_pressure;BME280_temperature;BME280_humidity;BME280_pressure;Samples;Min_cycle;Max_cycle;Signal;HPM_P1;HPM_P2
2023/10/29 00:00:49;;;;;;;10.77;4.15;;;;;;;;;;5020568;28;20080;-96
2023/10/29 00:03:15;;;;;;;7.03;4.10;;;;;;;;;;5005333;28;20048;-92
2023/10/29 00:05:41;;;;;;;4.43;3.83;;;;;;;;;;5037890;28;20442;-91
2023/10/29 00:08:09;;;;;;;6.03;3.30;;;;;;;;;;5003869;28;20140;-94
2023/10/29 00:10:35;;;;;;;6.50;3.70;;;;;;;;;;5021390;28;20037;-93
2023/10/29 00:13:02;;;;;;;6.13;3.63;;;;;;;;;;5010198;28;20079;-91
2023/10/29 00:15:29;;;;;;;5.15;3.60;;;;;;;;;;5027529;28;20052;-90
2023/10/29 00:17:55;;;;;;;7.95;3.35;;;;;;;;;;5005560;28;20045;-92
2023/10/29 00:20:21;;;;;;;5.10;3.35;;;;;;;;;;5020419;28;20064;-89
2023/10/29 00:22:47;;;;;;;3.80;3.08;;;;;;;;;;5019925;28;20048;-90
2023/10/29 00:25:13;;;;;;;5.53;3.20;;;;;;;;;;5029615;28;20071;-91
2023/10/29 00:27:39;;;;;;;5.60;3.58;;;;;;;;;;5022458;28;20041;-93
2023/10/29 00:30:06;;;;;;;3.85;3.33;;;;;;;;;;5019017;28;20298;-94
2023/10/29 00:32:32;;;;;;;3.00;2.72;;;;;;;;;;5010768;28;20106;-94
2023/10/29 00:34:58;;;;;;;4.03;3.00;;;;;;;;;;5041912;28;20041;-91
2023/10/29 00:37:24;;;;;;;5.10;3.10;;;;;;;;;;5037361;28;20048;-86
2023/10/29 00:39:50;;;;;;;3.10;2.80;;;;;;;;;;5037215;28;20131;-87
2023/10/29 00:42:16;;;;;;;3.17;2.85;;;;;;;;;;5020867;28;20057;-95
2023/10/29 00:44:42;;;;;;;3.20;2.90;;;;;;;;;;5020392;28;20041;-93
2023/10/29 00:47:08;;;;;;;4.53;2.80;;;;;;;;;;5020438;28;20108;-94
2023/10/29 00:49:35;;;;;;;6.07;3.35;;;;;;;;;;5019453;28;20052;-91
2023/10/29 00:52:02;;;;;;;2.97;2.67;;;;;;;;;;5036469;28;20045;-91
2023/10/29 00:54:28;;;;;;;4.80;3.25;;;;;;;;;;5064639;28;20053;-87
2023/10/29 00:56:55;;;;;;;3.10;2.80;;;;;;;;;;5069168;28;20057;-91
2023/10/29 00:59:21;;;;;;;2.90;2.65;;;;;;;;;;5056664;28;20051;-93
2023/10/29 01:01:48;;;;;;;3.08;2.88;;;11.10;99.90;;;;;;5040025;28;20044;-93
2023/10/29 01:04:14;;;;;;;2.85;2.65;;;;;;;;;;5055255;28;20397;-90
2023/10/29 01:06:42;;;;;;;2.83;2.53;;;;;;;;;;5038841;28;20033;-90
2023/10/29 01:09:08;;;;;;;2.72;2.53;;;;;;;;;;5055658;28;20052;-86
2023/10/29 01:11:34;;;;;;;2.85;2.65;;;;;;;;;;5039365;28;20041;-88
2023/10/29 01:14:04;;;;;;;3.55;2.88;;;;;;;;;;5038936;28;20054;-90
2023/10/29 01:16:30;;;;;;;2.75;2.55;;;;;;;;;;5039362;28;20040;-92
2023/10/29 01:18:56;;;;;;;2.60;2.38;;;;;;;;;;5040133;28;20049;-92
2023/10/29 01:21:23;;;;;;;2.20;2.10;;;;;;;;;;5039939;28;20059;-87
2023/10/29 01:23:49;;;;;;;3.33;2.50;;;;;;;;;;5039227;28;20044;-92
2023/10/29 01:26:15;;;;;;;6.20;2.50;;;;;;;;;;5038732;28;20029;-90
2023/10/29 01:28:41;;;;;;;2.55;2.35;;;;;;;;;;5054816;28;20075;-90
2023/10/29 01:31:07;;;;;;;3.03;2.72;;;;;;;;;;5038974;28;20045;-84
2023/10/29 01:33:33;;;;;;;4.35;2.65;;;;;;;;;;5038466;28;20047;-90
2023/10/29 01:35:59;;;;;;;3.30;2.95;;;;;;;;;;5055362;28;20041;-88
2023/10/29 01:38:25;;;;;;;2.65;2.45;;;;;;;;;;5037306;28;20052;-90
2023/10/29 01:40:51;;;;;;;2.60;2.40;;;;;;;;;;5038390;28;20037;-86
2023/10/29 01:43:17;;;;;;;2.13;1.98;;;;;;;;;;5053980;28;20124;-86
2023/10/29 01:45:43;;;;;;;3.80;2.58;;;;;;;;;;5038350;28;20040;-88
2023/10/29 01:48:10;;;;;;;2.60;2.40;;;;;;;;;;5054686;28;20052;-88
2023/10/29 01:50:36;;;;;;;3.15;2.85;;;;;;;;;;5038161;28;20054;-88
2023/10/29 01:53:02;;;;;;;3.47;2.90;;;;;;;;;;5037401;28;20390;-87
2023/10/29 01:55:28;;;;;;;3.70;2.83;;;;;;;;;;5053931;28;20048;-88
2023/10/29 01:57:55;;;;;;;3.17;2.78;;;;;;;;;;5053767;28;20059;-89
2023/10/29 02:00:21;;;;;;;6.25;4.07;;;;;;;;;;5037805;28;20044;-86
2023/10/29 02:02:47;;;;;;;3.45;3.15;;;;;;;;;;5037872;28;20044;-87
2023/10/29 02:05:16;;;;;;;3.08;2.78;;;;;;;;;;5037960;28;20044;-89
2023/10/29 02:07:42;;;;;;;4.03;3.35;;;;;;;;;;5037218;28;20055;-88
2023/10/29 02:10:08;;;;;;;4.28;2.63;;;;;;;;;;5054291;28;20045;-88
2023/10/29 02:12:34;;;;;;;3.90;3.33;;;;;;;;;;5053768;28;20055;-88
2023/10/29 02:15:00;;;;;;;3.15;2.85;;;;;;;;;;5037466;28;20493;-87
2023/10/29 02:17:27;;;;;;;5.03;2.88;;;;;;;;;;5037866;28;20440;-88
2023/10/29 02:19:57;;;;;;;4.13;2.88;;;;;;;;;;5037738;28;20136;-88
2023/10/29 02:22:24;;;;;;;3.10;2.83;;;;;;;;;;5037059;28;20048;-86
2023/10/29 02:24:50;;;;;;;2.90;2.70;;;;;;;;;;5054288;28;20127;-84
2023/10/29 02:27:16;;;;;;;2.90;2.60;;;;;;;;;;5037254;28;20105;-85
2023/10/29 02:29:42;;;;;;;6.95;3.38;;;;;;;;;;5053640;28;20045;-84
2023/10/29 02:32:09;;;;;;;4.78;2.50;;;;;;;;;;5054030;28;20071;-85
2023/10/29 02:34:35;;;;;;;3.72;2.38;;;;;;;;;;5054126;28;20047;-86
2023/10/29 02:37:01;;;;;;;6.53;2.80;;;;;;;;;;5035452;28;20052;-89
2023/10/29 02:39:27;;;;;;;2.70;2.28;;;;;;;;;;5036565;28;20131;-87
2023/10/29 02:41:53;;;;;;;4.03;2.30;;;;;;;;;;5021028;28;20512;-89
2023/10/29 02:44:19;;;;;;;3.28;2.30;;;;;;;;;;5054798;28;20127;-89
2023/10/29 02:46:45;;;;;;;5.65;2.22;;;;;;;;;;5060386;28;20072;-89
2023/10/29 02:49:11;;;;;;;4.60;2.63;;;;;;;;;;5042931;28;20047;-89
2023/10/29 02:51:37;;;;;;;7.13;2.17;;;;;;;;;;5043858;28;20519;-90
2023/10/29 02:54:03;;;;;;;2.42;1.92;;;;;;;;;;5048624;28;20091;-89
2023/10/29 02:56:30;;;;;;;2.55;2.10;;;;;;;;;;5048584;28;20103;-89
2023/10/29 02:58:56;;;;;;;3.90;2.35;;;;;;;;;;5063789;28;20417;-90
2023/10/29 03:01:22;;;;;;;6.38;2.28;;;;;;;;;;5066986;28;20413;-87
2023/10/29 03:03:48;;;;;;;6.75;2.25;;;;;;;;;;5056886;28;20041;-87
2023/10/29 03:06:14;;;;;;;2.58;2.00;;;;;;;;;;5041687;28;20497;-89
2023/10/29 03:08:40;;;;;;;6.28;2.00;;;;;;;;;;5059904;28;20044;-89
2023/10/29 03:11:07;;;;;;;2.65;2.20;;;;;;;;;;5064120;28;20048;-89
2023/10/29 03:13:33;;;;;;;5.05;2.17;;;;;;;;;;5043639;28;20048;-88
2023/10/29 03:15:59;;;;;;;2.45;2.10;;;;;;;;;;5060497;28;20045;-88
2023/10/29 03:18:25;;;;;;;2.42;1.90;;;;;;;;;;5042632;28;20136;-87
2023/10/29 03:20:51;;;;;;;2.67;1.67;;;;;;;;;;5060612;28;20507;-86
2023/10/29 03:23:17;;;;;;;3.58;2.08;;;;;;;;;;5026833;28;20040;-87
2023/10/29 03:25:44;;;;;;;3.17;1.60;;;;;;;;;;5043458;28;20043;-88
2023/10/29 03:28:11;;;;;;;2.47;1.50;;;;;;;;;;5042951;28;20495;-87
2023/10/29 03:30:37;;;;;;;4.88;1.88;;;;;;;;;;5043147;28;20041;-88
2023/10/29 03:33:03;;;;;;;4.03;1.60;;;;;;;;;;5060108;28;20045;-88
2023/10/29 03:35:29;;;;;;;2.63;1.50;;;;;;;;;;5060590;28;20044;-85
2023/10/29 03:37:55;;;;;;;4.05;1.63;;;;;;;;;;5043170;28;20054;-86
2023/10/29 03:40:22;;;;;;;5.30;1.70;;;;;;;;;;5043422;28;20040;-86
2023/10/29 03:42:48;;;;;;;6.72;1.90;;;;;;;;;;5042828;28;20045;-86
2023/10/29 03:45:14;;;;;;;1.77;1.65;;;;;;;;;;5060263;28;20047;-86
2023/10/29 03:47:42;;;;;;;3.63;2.42;;;12.30;99.90;;;;;;5043626;28;20044;-86
2023/10/29 03:50:08;;;;;;;6.22;1.60;;;;;;;;;;5059892;28;20044;-86
2023/10/29 03:52:34;;;;;;;2.00;1.50;;;;;;;;;;5042671;28;20512;-85
2023/10/29 03:55:01;;;;;;;1.88;1.38;;;;;;;;;;5042278;28;20052;-86
2023/10/29 03:57:27;;;;;;;2.53;1.30;;;;;;;;;;5054638;28;20048;-86
2023/10/29 03:59:53;;;;;;;1.98;1.17;;;;;;;;;;5056399;28;20044;-88
2023/10/29 04:02:19;;;;;;;1.33;1.13;;;;;;;;;;5056540;28;20044;-86
2023/10/29 04:04:45;;;;;;;1.75;1.33;;;;;;;;;;5056644;28;20041;-86
2023/10/29 04:07:11;;;;;;;1.40;1.10;;;;;;;;;;5072758;28;20047;-88
2023/10/29 04:09:38;;;;;;;2.53;1.30;;;;;;;;;;5055485;28;20036;-87
2023/10/29 04:12:04;;;;;;;2.58;1.27;;;;;;;;;;5039854;28;20091;-88
2023/10/29 04:14:30;;;;;;;1.58;1.25;;;;;;;;;;5056208;28;20044;-86
2023/10/29 04:16:56;;;;;;;1.77;1.00;;;;;;;;;;5039544;28;20501;-88
2023/10/29 04:19:22;;;;;;;1.15;1.05;;;;;;;;;;5055641;28;20048;-87
2023/10/29 04:21:48;;;;;;;1.67;1.10;;;;;;;;;;5056372;28;20052;-88
2023/10/29 04:24:14;;;;;;;1.13;1.02;;;;;;;;;;5055685;28;20040;-87
2023/10/29 04:26:40;;;;;;;1.40;1.08;;;;;;;;;;5039929;28;20052;-87
2023/10/29 04:29:06;;;;;;;1.13;0.85;;;;;;;;;;5039174;28;20044;-87
2023/10/29 04:31:32;;;;;;;2.65;1.05;;;;;;;;;;5039419;28;20079;-86
2023/10/29 04:33:59;;;;;;;1.27;1.17;;;;;;;;;;5038971;28;20084;-87
2023/10/29 04:36:25;;;;;;;2.78;0.90;;;;;;;;;;5056006;28;20413;-87
2023/10/29 04:38:52;;;;;;;2.08;0.75;;;;;;;;;;5038697;28;20132;-87
2023/10/29 04:41:18;;;;;;;2.65;0.98;;;;;;;;;;5039361;28;20055;-86
2023/10/29 04:43:44;;;;;;;1.05;0.98;;;;;;;;;;5055924;28;20041;-88
2023/10/29 04:46:11;;;;;;;1.95;0.68;;;;;;;;;;5038760;28;20053;-87
2023/10/29 04:48:41;;;;;;;1.85;0.80;;;;;;;;;;5055914;28;20125;-86
2023/10/29 04:51:07;;;;;;;1.00;0.75;;;;;;;;;;5055606;28;20044;-85
2023/10/29 04:53:34;;;;;;;1.40;0.70;;;12.50;99.90;;;;;;5054516;28;20049;-86
2023/10/29 04:56:00;;;;;;;1.65;0.82;;;;;;;;;;5056259;28;20155;-87
2023/10/29 04:58:26;;;;;;;0.60;0.60;;;;;;;;;;5038786;28;20060;-86
2023/10/29 05:00:52;;;;;;;3.30;0.63;;;;;;;;;;5051101;28;20036;-86
2023/10/29 05:03:19;;;;;;;0.60;0.60;;;;;;;;;;5019102;28;20404;-84
2023/10/29 05:05:45;;;;;;;0.98;0.60;;;;;;;;;;5018993;28;20045;-86
2023/10/29 05:08:11;;;;;;;0.47;0.47;;;;;;;;;;5033756;28;20090;-84
2023/10/29 05:10:37;;;;;;;2.47;0.57;;;;;;;;;;5022300;28;20041;-85
2023/10/29 05:13:03;;;;;;;1.48;0.57;;;;;;;;;;5022335;28;20041;-84
2023/10/29 05:15:30;;;;;;;0.80;0.70;;;;;;;;;;5013168;28;20058;-84
2023/10/29 05:17:56;;;;;;;2.05;1.20;;;;;;;;;;5018227;28;20400;-86
2023/10/29 05:20:22;;;;;;;2.22;0.70;;;;;;;;;;5033417;28;20051;-87
2023/10/29 05:22:48;;;;;;;1.77;1.00;;;;;;;;;;5055563;28;20485;-86
2023/10/29 05:25:14;;;;;;;1.02;0.70;;;;;;;;;;5055487;28;20442;-85
2023/10/29 05:27:49;;;;;;;3.00;0.70;;;;;;;;;;5037386;28;20041;-85
2023/10/29 05:30:15;;;;;;;1.20;0.77;;;;;;;;;;5018337;28;20102;-84
2023/10/29 05:32:41;;;;;;;1.17;0.60;;;;;;;;;;5036328;28;20040;-87
2023/10/29 05:35:08;;;;;;;2.00;0.82;;;;;;;;;;5054875;28;20055;-84
2023/10/29 05:37:34;;;;;;;2.25;0.93;;;;;;;;;;5038182;28;20451;-84
2023/10/29 05:40:00;;;;;;;1.35;0.68;;;;;;;;;;5040387;28;20076;-87
2023/10/29 05:42:26;;;;;;;1.35;1.02;;;;;;;;;;5018932;28;20416;-86
2023/10/29 05:44:52;;;;;;;7.78;0.90;;;;;;;;;;5017916;28;20120;-86
2023/10/29 05:47:18;;;;;;;1.55;0.90;;;;;;;;;;5022797;28;20050;-84
2023/10/29 05:49:44;;;;;;;5.43;0.70;;;;;;;;;;5018552;28;20043;-86
2023/10/29 05:52:11;;;;;;;1.00;0.70;;;;;;;;;;5018506;28;20045;-85
2023/10/29 05:54:37;;;;;;;0.68;0.68;;;;;;;;;;5037775;28;20543;-87
2023/10/29 05:57:03;;;;;;;0.77;0.60;;;;;;;;;;5037853;28;20060;-87
2023/10/29 05:59:29;;;;;;;1.02;0.60;;;;;;;;;;5021094;28;20044;-86
2023/10/29 06:01:55;;;;;;;1.20;0.90;;;;;;;;;;5037376;28;20044;-87
2023/10/29 06:04:21;;;;;;;1.55;1.02;;;;;;;;;;5021033;28;20734;-85
2023/10/29 06:06:47;;;;;;;1.25;0.90;;;;;;;;;;5053854;28;20538;-87
2023/10/29 06:09:13;;;;;;;3.28;0.93;;;;;;;;;;5038015;28;20045;-86
2023/10/29 06:11:43;;;;;;;4.00;1.00;;;;;;;;;;5037650;28;20044;-86
2023/10/29 06:14:09;;;;;;;2.97;0.77;;;;;;;;;;5015345;28;20040;-89
2023/10/29 06:16:35;;;;;;;3.13;0.80;;;;;;;;;;5035001;28;20037;-88
2023/10/29 06:19:04;;;;;;;1.65;0.90;;;;;;;;;;5016632;28;20041;-84
2023/10/29 06:21:31;;;;;;;2.53;0.75;;;;;;;;;;5034339;28;20039;-87
2023/10/29 06:23:57;;;;;;;0.40;0.40;;;;;;;;;;5042537;28;20044;-84
2023/10/29 06:26:23;;;;;;;1.75;0.85;;;;;;;;;;5044555;28;20037;-88
2023/10/29 06:28:50;;;;;;;0.73;0.68;;;;;;;;;;5040101;28;20041;-85
2023/10/29 06:31:16;;;;;;;2.67;1.58;;;;;;;;;;5036848;28;20110;-87
2023/10/29 06:33:42;;;;;;;0.63;0.60;;;;;;;;;;5020679;28;20044;-88
2023/10/29 06:36:09;;;;;;;0.68;0.63;;;;;;;;;;5054017;28;20079;-88
2023/10/29 06:38:35;;;;;;;2.28;0.68;;;;;;;;;;5037520;28;20067;-86
2023/10/29 06:41:02;;;;;;;0.57;0.57;;;;;;;;;;5052259;28;20051;-88
2023/10/29 06:43:28;;;;;;;0.70;0.70;;;;;;;;;;5037581;28;20053;-86
2023/10/29 06:45:56;;;;;;;4.00;1.58;;;;;;;;;;5037170;28;20052;-85
2023/10/29 06:48:22;;;;;;;1.30;1.08;;;;;;;;;;5037388;28;20056;-86
2023/10/29 06:50:48;;;;;;;7.10;0.90;;;;;;;;;;5020783;28;20074;-85
2023/10/29 06:53:15;;;;;;;3.83;0.95;;;;;;;;;;5052583;28;20498;-87
2023/10/29 06:55:42;;;;;;;2.33;0.90;;;;;;;;;;5037218;28;20051;-84
2023/10/29 06:58:08;;;;;;;1.00;0.70;;;;;;;;;;5036715;28;20631;-84
2023/10/29 07:00:34;;;;;;;2.13;1.10;;;;;;;;;;5017993;28;20041;-87
2023/10/29 07:03:00;;;;;;;2.70;0.70;;;;;;;;;;5016976;28;20084;-87
2023/10/29 07:05:26;;;;;;;6.00;1.27;;;;;;;;;;5033849;28;20060;-86
2023/10/29 07:07:52;;;;;;;3.72;1.23;;;;;;;;;;5032996;28;20051;-87
2023/10/29 07:10:18;;;;;;;1.00;0.80;;;;;;;;;;5033049;28;20049;-87
2023/10/29 07:12:44;;;;;;;2.40;0.90;;;;;;;;;;5036293;28;20051;-84
2023/10/29 07:15:10;;;;;;;2.05;0.80;;;;;;;;;;5036915;28;20045;-84
2023/10/29 07:17:37;;;;;;;0.90;0.70;;;;;;;;;;5024141;28;20131;-83
2023/10/29 07:20:08;;;;;;;1.15;0.90;;;;;;;;;;5034057;28;20045;-83
2023/10/29 07:22:34;;;;;;;4.57;0.93;;;;;;;;;;5017290;28;20587;-84
2023/10/29 07:25:00;;;;;;;5.57;1.02;;;;;;;;;;5032629;28;20119;-83
2023/10/29 07:27:26;;;;;;;1.48;0.73;;;;;;;;;;5001309;28;20103;-85
2023/10/29 07:29:53;;;;;;;2.33;0.90;;;;;;;;;;5017057;28;20101;-88
2023/10/29 07:32:19;;;;;;;2.72;0.90;;;;;;;;;;5019895;28;20051;-87
2023/10/29 07:34:46;;;;;;;2.60;1.10;;;;;;;;;;5020552;28;20128;-87
2023/10/29 07:37:12;;;;;;;1.30;0.77;;;;;;;;;;5004213;28;20175;-87
2023/10/29 07:39:38;;;;;;;2.15;0.95;;;;;;;;;;5037918;28;20122;-88
2023/10/29 07:42:04;;;;;;;0.85;0.85;;;;;;;;;;5056117;28;20049;-86
2023/10/29 07:44:30;;;;;;;4.57;1.05;;;;;;;;;;5056997;28;20044;-86
2023/10/29 07:46:58;;;;;;;1.85;0.90;;;;;;;;;;5040238;28;20049;-86
2023/10/29 07:49:24;;;;;;;2.55;0.90;;;;;;;;;;5040629;28;20041;-86
2023/10/29 07:51:50;;;;;;;1.90;0.93;;;;;;;;;;5040490;28;20545;-86
2023/10/29 07:54:16;;;;;;;2.40;1.00;;;;;;;;;;5036582;28;20188;-83
2023/10/29 07:56:42;;;;;;;1.90;0.93;;;;;;;;;;5020314;28;20115;-84
2023/10/29 07:59:08;;;;;;;2.33;0.90;;;;;;;;;;5003828;28;20056;-83
2023/10/29 08:01:34;;;;;;;5.32;1.40;;;;;;;;;;5020287;28;20131;-83
2023/10/29 08:04:00;;;;;;;3.88;1.00;;;;;;;;;;5036654;28;20494;-84
2023/10/29 08:06:26;;;;;;;1.63;0.80;;;;;;;;;;5002916;28;20041;-84
2023/10/29 08:08:52;;;;;;;2.28;0.95;;;;;;;;;;5018243;28;20628;-84
2023/10/29 08:11:22;;;;;;;1.65;0.70;;;;;;;;;;5003466;28;20041;-84
2023/10/29 08:13:50;;;;;;;0.98;0.90;;;;;;;;;;5034911;28;20132;-83
2023/10/29 08:16:17;;;;;;;4.45;1.17;;;;;;;;;;5019497;28;20052;-83
2023/10/29 08:18:43;;;;;;;2.17;0.90;;;;;;;;;;5020165;28;20049;-83
2023/10/29 08:21:09;;;;;;;1.83;1.13;;;;;;;;;;5020070;28;20072;-84
2023/10/29 08:23:35;;;;;;;2.15;1.60;;;;;;;;;;5020106;28;20041;-84
2023/10/29 08:26:01;;;;;;;10.07;1.73;;;;;;;;;;5035840;28;20052;-85
2023/10/29 08:28:27;;;;;;;5.35;1.70;;;;;;;;;;5018644;28;20056;-83
2023/10/29 08:30:54;;;;;;;2.90;1.10;;;;;;;;;;5035997;28;20041;-85
2023/10/29 08:33:21;;;;;;;5.80;1.25;;;;;;;;;;5035826;28;20045;-85
2023/10/29 08:35:47;;;;;;;3.45;1.48;;;;;;;;;;5019518;28;20045;-84
2023/10/29 08:38:14;;;;;;;3.90;1.08;;;;;;;;;;5019439;28;20383;-85
2023/10/29 08:40:40;;;;;;;3.70;1.08;;;;;;;;;;5036308;28;20036;-84
2023/10/29 08:43:06;;;;;;;3.05;1.30;;;;;;;;;;5017829;28;20123;-83
2023/10/29 08:45:32;;;;;;;2.72;1.00;;;;;;;;;;5018852;28;20048;-83
2023/10/29 08:47:58;;;;;;;2.30;0.98;;;;;;;;;;5019247;28;20041;-84
2023/10/29 08:50:24;;;;;;;5.07;1.40;;;;;;;;;;5019232;28;20041;-85
2023/10/29 08:52:50;;;;;;;6.20;1.33;;;;;;;;;;5024696;28;20053;-82
2023/10/29 08:55:16;;;;;;;5.18;1.23;;;;;;;;;;5038986;28;20093;-83
2023/10/29 08:57:43;;;;;;;9.88;1.50;;;;;;;;;;5025614;28;20126;-84
2023/10/29 09:00:09;;;;;;;6.25;1.20;;;12.90;93.60;;;;;;5018296;28;20045;-84
2023/10/29 09:02:35;;;;;;;5.10;1.25;;;;;;;;;;5019192;28;20135;-84
2023/10/29 09:05:02;;;;;;;2.70;1.30;;;;;;;;;;5026270;28;20043;-84
2023/10/29 09:07:28;;;;;;;7.32;1.20;;;;;;;;;;5038563;28;20048;-85
2023/10/29 09:09:54;;;;;;;6.35;1.38;;;;;;;;;;5055471;28;20044;-85
2023/10/29 09:12:21;;;;;;;3.17;1.45;;;;;;;;;;5023893;28;20044;-86
2023/10/29 09:14:47;;;;;;;5.25;1.55;;;;;;;;;;5018679;28;20049;-86
2023/10/29 09:17:13;;;;;;;4.97;1.30;;;;;;;;;;5018877;28;20088;-85
2023/10/29 09:19:40;;;;;;;1.42;0.85;;;;;;;;;;5018776;28;20094;-86
2023/10/29 09:22:06;;;;;;;2.95;1.27;;;;;;;;;;5019826;28;20064;-86
2023/10/29 09:24:32;;;;;;;1.98;0.75;;;;;;;;;;5018568;28;20123;-85
2023/10/29 09:26:58;;;;;;;6.38;1.08;;;;;;;;;;5018290;28;20623;-86
2023/10/29 09:29:25;;;;;;;5.38;1.00;;;;;;;;;;5002256;28;20090;-86
2023/10/29 09:31:51;;;;;;;2.70;1.00;;;;;;;;;;5018899;28;20037;-85
2023/10/29 09:34:18;;;;;;;1.58;0.85;;;;;;;;;;5034968;28;20048;-84
2023/10/29 09:36:44;;;;;;;5.15;1.00;;;;;;;;;;5002292;28;20045;-85
2023/10/29 09:39:11;;;;;;;7.00;1.33;;;;;;;;;;5004082;28;20040;-85
2023/10/29 09:41:43;;;;;;;4.50;1.58;;;13.00;69.10;;;;;;5018254;28;20470;-87
2023/10/29 09:44:10;;;;;;;4.15;1.60;;;;;;;;;;4998414;28;20401;-86
2023/10/29 09:46:37;;;;;;;3.58;1.48;;;;;;;;;;5022728;28;20045;-85
2023/10/29 09:49:04;;;;;;;4.20;1.70;;;;;;;;;;5052390;28;20049;-85
2023/10/29 09:51:30;;;;;;;4.90;1.60;;;;;;;;;;5034519;28;20040;-85
2023/10/29 09:53:59;;;;;;;3.33;1.38;;;;;;;;;;5039976;28;20084;-85
2023/10/29 09:56:26;;;;;;;3.65;1.13;;;;;;;;;;5026186;28;20045;-85
2023/10/29 09:58:52;;;;;;;7.13;1.45;;;;;;;;;;5017749;28;20048;-85
2023/10/29 10:01:18;;;;;;;3.03;1.33;;;;;;;;;;5018270;28;20165;-86
2023/10/29 10:03:45;;;;;;;3.17;1.40;;;;;;;;;;5018102;28;20052;-85
2023/10/29 10:06:14;;;;;;;6.97;1.38;;;;;;;;;;5002067;28;20041;-85
2023/10/29 10:08:40;;;;;;;2.65;1.20;;;;;;;;;;5016688;28;20451;-84
2023/10/29 10:11:21;;;;;;;6.00;1.85;;;13.60;58.40;;;;;;5020986;28;20045;-85
2023/10/29 10:13:47;;;;;;;4.65;1.85;;;;;;;;;;5001743;28;20482;-85
2023/10/29 10:16:14;;;;;;;4.32;1.58;;;;;;;;;;5014110;28;20045;-84
2023/10/29 10:19:00;;;;;;;3.75;1.30;;;;;;;;;;5032045;28;20049;-84
2023/10/29 10:21:27;;;;;;;1.70;1.00;;;;;;;;;;5032192;28;20411;-84
2023/10/29 10:23:57;;;;;;;4.53;1.48;;;;;;;;;;5024561;28;20041;-85
2023/10/29 10:26:35;;;;;;;8.32;1.27;;;;;;;;;;5022665;28;20087;-84
2023/10/29 10:29:03;;;;;;;3.20;1.48;;;13.70;52.20;;;;;;5037079;28;20485;-83
2023/10/29 10:31:31;;;;;;;4.47;1.35;;;;;;;;;;5037492;28;20064;-84
2023/10/29 10:34:14;;;;;;;1.13;1.00;;;;;;;;;;5053940;28;20056;-84
2023/10/29 10:36:44;;;;;;;3.63;1.10;;;13.70;44.40;;;;;;5053771;28;20044;-84
2023/10/29 10:39:13;;;;;;;6.15;1.58;;;;;;;;;;5016967;28;20041;-86
2023/10/29 10:41:43;;;;;;;2.05;1.25;;;;;;;;;;5034252;28;20072;-85
2023/10/29 10:44:10;;;;;;;6.57;1.50;;;;;;;;;;5047531;28;20127;-86
2023/10/29 10:46:37;;;;;;;3.70;1.50;;;;;;;;;;5037552;28;20132;-86
2023/10/29 10:49:07;;;;;;;5.60;1.48;;;;;;;;;;5036872;28;20052;-86
2023/10/29 10:51:38;;;;;;;3.03;1.58;;;;;;;;;;5049201;28;20053;-84
2023/10/29 10:54:05;;;;;;;11.35;1.67;;;;;;;;;;5023739;28;20087;-86
2023/10/29 10:56:35;;;;;;;2.80;1.38;;;;;;;;;;5033853;28;20072;-84
2023/10/29 10:59:03;;;;;;;5.47;1.45;;;;;;;;;;5017302;28;20051;-83
2023/10/29 11:01:30;;;;;;;7.75;2.10;;;;;;;;;;5017461;28;20052;-83
2023/10/29 11:03:57;;;;;;;3.00;1.35;;;;;;;;;;5017737;28;20106;-83
2023/10/29 11:06:23;;;;;;;4.20;1.08;;;;;;;;;;5034114;28;20041;-84
2023/10/29 11:08:49;;;;;;;2.55;1.13;;;;;;;;;;5021738;28;20048;-84
2023/10/29 11:11:17;;;;;;;3.38;1.50;;;13.80;34.10;;;;;;5021226;28;20045;-84
2023/10/29 11:13:43;;;;;;;3.00;1.42;;;;;;;;;;5021890;28;20053;-83
2023/10/29 11:16:29;;;;;;;3.15;1.40;;;;;;;;;;5021124;28;20045;-84
2023/10/29 11:18:55;;;;;;;4.72;1.95;;;;;;;;;;5020942;28;20044;-84
2023/10/29 11:21:32;;;;;;;3.28;1.70;;;;;;;;;;5021433;28;20129;-82
2023/10/29 11:24:22;;;;;;;6.20;1.77;;;;;;;;;;5035637;28;20045;-83
2023/10/29 11:26:48;;;;;;;6.85;2.22;;;;;;;;;;5020849;28;20057;-83
2023/10/29 11:29:42;;;;;;;4.82;1.40;;;13.70;29.70;;;;;;5037598;28;20063;-84
2023/10/29 11:32:08;;;;;;;;;;;;;;;;;;5005294;28;20416;-83
2023/10/29 11:34:35;;;;;;;3.83;1.50;;;;;;;;;;5036968;28;19966;-83
2023/10/29 11:37:02;;;;;;;3.20;1.63;;;;;;;;;;5004339;28;20131;-84
2023/10/29 11:39:32;;;;;;;10.27;1.73;;;13.80;28.50;;;;;;5037061;28;20045;-83
2023/10/29 11:41:59;;;;;;;6.75;2.00;;;;;;;;;;5036230;28;20099;-83
2023/10/29 11:44:27;;;;;;;6.45;2.05;;;;;;;;;;5037524;28;20045;-83
2023/10/29 11:46:56;;;;;;;10.02;1.80;;;;;;;;;;5021168;28;20045;-83
2023/10/29 11:49:23;;;;;;;5.45;1.95;;;14.10;23.20;;;;;;5021188;28;20501;-85
2023/10/29 11:51:57;;;;;;;5.15;1.77;;;;;;;;;;5020267;28;20043;-84
2023/10/29 11:54:24;;;;;;;2.17;1.40;;;;;;;;;;5020415;28;20502;-85
2023/10/29 11:56:50;;;;;;;8.82;1.98;;;;;;;;;;5004675;28;20067;-85
2023/10/29 11:59:22;;;;;;;7.75;1.90;;;;;;;;;;5020720;28;20048;-84
2023/10/29 12:01:49;;;;;;;7.45;1.60;;;;;;;;;;5020164;28;20410;-84
2023/10/29 12:04:15;;;;;;;10.77;2.38;;;;;;;;;;5019509;28;20482;-84
2023/10/29 12:06:48;;;;;;;8.27;1.90;;;13.80;28.00;;;;;;5020699;28;20048;-84
2023/10/29 12:09:21;;;;;;;11.05;2.45;;;;;;;;;;5037095;28;20083;-83
2023/10/29 12:11:49;;;;;;;7.00;1.33;;;13.70;25.10;;;;;;5004067;28;20131;-83
2023/10/29 12:14:16;;;;;;;6.45;2.03;;;13.90;25.30;;;;;;5020289;28;20045;-84
2023/10/29 12:16:42;;;;;;;4.32;1.75;;;;;;;;;;5019902;28;20045;-85
2023/10/29 12:19:08;;;;;;;3.17;1.60;;;;;;;;;;5034726;28;20049;-85
2023/10/29 12:21:35;;;;;;;8.15;2.20;;;;;;;;;;5004001;28;20051;-85
2023/10/29 12:24:01;;;;;;;6.38;1.75;;;13.90;25.70;;;;;;5003719;28;20045;-84
2023/10/29 12:26:28;;;;;;;8.10;1.67;;;;;;;;;;5020033;28;20037;-83
2023/10/29 12:28:54;;;;;;;9.68;1.77;;;;;;;;;;5019709;28;20393;-84
2023/10/29 12:31:24;;;;;;;5.45;1.88;;;;;;;;;;5035220;28;20532;-84
2023/10/29 12:33:57;;;;;;;6.55;1.55;;;;;;;;;;5036366;28;20072;-84
2023/10/29 12:36:26;;;;;;;4.53;1.33;;;;;;;;;;5037064;28;20053;-83
2023/10/29 12:38:53;;;;;;;5.18;1.40;;;;;;;;;;5035979;28;20394;-83
2023/10/29 12:41:23;;;;;;;4.35;1.52;;;13.60;24.10;;;;;;5020705;28;20041;-83
2023/10/29 12:43:53;;;;;;;7.28;2.00;;;;;;;;;;5018811;28;20477;-84
2023/10/29 12:46:24;;;;;;;14.02;2.08;;;13.70;24.50;;;;;;5020626;28;20051;-83
2023/10/29 12:49:03;;;;;;;9.13;2.17;;;;;;;;;;5019894;28;20528;-83
2023/10/29 12:51:33;;;;;;;12.55;1.63;;;;;;;;;;5019491;28;20132;-84
2023/10/29 12:54:11;;;;;;;5.63;1.60;;;;;;;;;;5032633;28;20566;-83
2023/10/29 12:56:49;;;;;;;13.60;2.13;;;13.80;18.70;;;;;;5038199;28;20048;-84
2023/10/29 12:59:21;;;;;;;3.83;1.75;;;;;;;;;;5055997;28;20053;-84
2023/10/29 13:01:52;;;;;;;8.30;2.08;;;;;;;;;;5039102;28;20075;-84
2023/10/29 13:04:18;;;;;;;10.32;1.75;;;;;;;;;;5023159;28;20170;-83
2023/10/29 13:06:45;;;;;;;5.72;1.75;;;;;;;;;;5039174;28;20036;-83
2023/10/29 13:09:17;;;;;;;9.95;1.90;;;;;;;;;;5055962;28;20051;-84
2023/10/29 13:11:44;;;;;;;6.15;1.65;;;;;;;;;;5038228;28;20516;-84
2023/10/29 13:14:10;;;;;;;7.32;1.95;;;;;;;;;;5055497;28;20086;-84
2023/10/29 13:16:37;;;;;;;7.95;1.67;;;;;;;;;;5055016;28;20048;-84
2023/10/29 13:19:11;;;;;;;7.60;1.75;;;;;;;;;;5040081;28;20048;-83
2023/10/29 13:21:37;;;;;;;7.10;1.92;;;;;;;;;;5038685;28;20397;-83
2023/10/29 13:24:05;;;;;;;5.55;1.88;;;;;;;;;;5021615;28;20048;-84
2023/10/29 13:26:32;;;;;;;10.43;1.77;;;;;;;;;;5053545;28;20091;-84
2023/10/29 13:28:58;;;;;;;8.55;1.50;;;;;;;;;;5021622;28;20055;-84
2023/10/29 13:31:27;;;;;;;5.70;1.33;;;;;;;;;;5039456;28;20044;-84
2023/10/29 13:33:54;;;;;;;6.80;2.03;;;;;;;;;;5055467;28;20386;-84
2023/10/29 13:36:21;;;;;;;7.40;2.90;;;;;;;;;;5038155;28;20076;-84
2023/10/29 13:38:47;;;;;;;8.80;3.42;;;;;;;;;;5021188;28;20032;-83
2023/10/29 13:41:14;;;;;;;6.38;3.45;;;;;;;;;;5055104;28;20036;-83
2023/10/29 13:43:42;;;;;;;12.70;4.20;;;;;;;;;;5019177;28;20485;-84
2023/10/29 13:46:08;;;;;;;10.40;2.90;;;;;;;;;;5038541;28;20037;-83
2023/10/29 13:48:34;;;;;;;8.77;2.85;;;13.70;30.00;;;;;;5055068;28;20105;-84
2023/10/29 13:51:04;;;;;;;7.82;2.40;;;;;;;;;;5054323;28;20489;-84
2023/10/29 13:53:31;;;;;;;8.15;3.00;;;;;;;;;;5029996;28;20060;-83
2023/10/29 13:56:06;;;;;;;6.10;1.98;;;;;;;;;;5032510;28;20098;-83
2023/10/29 13:58:32;;;;;;;8.60;2.20;;;;;;;;;;5033321;28;20055;-85
2023/10/29 14:00:59;;;;;;;9.38;2.60;;;;;;;;;;5021349;28;20562;-84
2023/10/29 14:03:25;;;;;;;7.32;1.80;;;;;;;;;;5036806;28;20052;-85
2023/10/29 14:05:51;;;;;;;9.93;2.13;;;;;;;;;;5035334;28;20037;-84
2023/10/29 14:08:17;;;;;;;4.82;2.40;;;;;;;;;;5028049;28;20049;-85
2023/10/29 14:10:43;;;;;;;6.93;2.25;;;;;;;;;;5067573;28;20044;-84
2023/10/29 14:13:09;;;;;;;9.45;3.50;;;;;;;;;;5054854;28;20131;-85
2023/10/29 14:15:35;;;;;;;10.13;1.92;;;;;;;;;;5054416;28;20047;-85
2023/10/29 14:18:02;;;;;;;3.70;1.58;;;;;;;;;;5052669;28;20103;-85
2023/10/29 14:20:28;;;;;;;7.35;1.85;;;;;;;;;;5041101;28;20045;-84
2023/10/29 14:22:54;;;;;;;5.38;1.55;;;;;;;;;;5063705;28;20079;-84
2023/10/29 14:25:20;;;;;;;9.02;2.38;;;;;;;;;;5034341;28;20040;-84
2023/10/29 14:27:47;;;;;;;7.38;2.15;;;;;;;;;;5049433;28;20052;-84
2023/10/29 14:30:14;;;;;;;8.18;2.00;;;;;;;;;;5054501;28;20041;-84
2023/10/29 14:32:40;;;;;;;10.38;1.92;;;;;;;;;;5049573;28;20044;-84
2023/10/29 14:35:07;;;;;;;10.40;1.92;;;;;;;;;;5036547;28;20040;-84